createdAt,value
2022-12-28T05:02:26.826Z,96730.41
2022-12-28T05:12:25.994Z,96721.75
2022-12-28T05:22:25.316Z,96719.34
2022-12-28T05:32:26.277Z,96716.91
2022-12-28T05:42:25.562Z,96713.41
2022-12-28T05:52:23.443Z,96713.13
2022-12-28T06:02:25.686Z,96693.91
2022-12-28T06:12:23.686Z,96686.59
2022-12-28T06:22:22.899Z,96657.13
2022-12-28T06:32:20.739Z,96669.56
2022-12-28T06:42:22.308Z,96651.72
2022-12-28T06:52:20.206Z,96650.91
2022-12-28T07:02:21.929Z,96604.69
2022-12-28T07:12:19.880Z,96608.47
2022-12-28T07:22:19.160Z,96631.75
2022-12-28T07:32:17.222Z,96636.28
2022-12-28T07:42:16.565Z,96638.59
2022-12-28T07:52:14.454Z,96633.72
2022-12-28T08:02:13.735Z,96624.13
2022-12-28T08:12:11.770Z,96629.03
2022-12-28T08:22:11.104Z,96622.59
2022-12-28T08:32:11.537Z,96625.06
2022-12-28T08:42:10.799Z,96608.38
2022-12-28T08:52:08.746Z,96610.84
2022-12-28T09:02:08.092Z,96607.63
2022-12-28T09:12:07.332Z,96607.13
2022-12-28T09:22:06.610Z,96614.69
2022-12-28T09:32:06.910Z,96598.22
2022-12-28T09:42:12.048Z,96587.13
2022-12-28T09:52:26.456Z,96583.84
2022-12-28T10:02:31.028Z,96579.63
2022-12-28T10:12:31.195Z,96563.19
2022-12-28T10:22:42.425Z,96551.19
2022-12-28T10:32:50.611Z,96535.72
2022-12-28T10:42:54.560Z,96529.03
2022-12-28T10:52:58.890Z,96525.28
2022-12-28T11:02:58.447Z,96516.25
2022-12-28T11:12:58.648Z,96498.06
2022-12-28T11:22:58.583Z,96481.41
2022-12-28T11:32:59.564Z,96479.28
2022-12-28T11:42:58.773Z,96461.16
2022-12-28T11:52:56.673Z,96449.38
2022-12-28T12:02:58.133Z,96440.44
2022-12-28T12:12:56.588Z,96423.19
2022-12-28T12:23:00.396Z,96405.00
2022-12-28T12:33:01.788Z,96387.91
2022-12-28T12:43:13.325Z,96371.91
2022-12-28T12:53:27.256Z,96352.75
2022-12-28T13:03:42.177Z,96345.09
2022-12-28T13:13:42.318Z,96340.97
2022-12-28T13:23:45.966Z,96327.97
2022-12-28T13:33:43.973Z,96305.22
2022-12-28T13:44:10.523Z,96285.19
2022-12-28T13:54:13.067Z,96275.28
2022-12-28T14:14:38.183Z,96286.53
2022-12-28T14:24:37.463Z,96283.00
2022-12-28T14:34:37.456Z,96273.28
2022-12-28T14:44:39.524Z,96245.41
2022-12-28T14:54:45.536Z,96241.13
2022-12-28T15:04:45.640Z,96234.91
2022-12-28T15:14:44.037Z,96227.88
2022-12-28T15:24:45.343Z,96224.38
2022-12-28T15:34:43.553Z,96221.66
2022-12-28T15:44:42.829Z,96217.66
2022-12-28T15:54:46.806Z,96212.25
2022-12-28T16:04:48.816Z,96196.00
2022-12-28T16:14:47.717Z,96197.09
2022-12-28T16:24:49.711Z,96200.94
2022-12-28T16:34:48.891Z,96177.69
2022-12-28T16:44:48.166Z,96177.06
2022-12-28T16:54:48.617Z,96172.16
2022-12-28T17:04:47.900Z,96167.28
2022-12-28T17:14:45.888Z,96160.75
2022-12-28T17:24:45.379Z,96160.75
2022-12-28T17:34:43.373Z,96157.75
2022-12-28T17:44:45.661Z,96140.44
2022-12-28T17:54:45.990Z,96122.28
2022-12-28T18:04:45.248Z,96113.88
2022-12-28T18:14:43.132Z,96095.44
2022-12-28T18:24:42.428Z,96088.94
2022-12-28T18:34:40.414Z,96069.69
2022-12-28T18:44:39.622Z,96066.97
2022-12-28T18:54:37.806Z,96047.53
2022-12-28T19:04:39.443Z,96042.09
2022-12-28T19:14:37.416Z,96035.25
2022-12-28T19:24:36.628Z,96020.69
2022-12-28T19:34:35.125Z,96001.72
2022-12-28T19:44:34.348Z,96002.75
2022-12-28T19:54:34.337Z,96001.28
2022-12-28T20:04:33.650Z,95996.28
2022-12-28T20:14:31.709Z,95994.19
2022-12-28T20:24:33.415Z,95992.75
2022-12-28T20:34:31.362Z,95983.16
2022-12-28T20:44:33.963Z,95977.50
2022-12-28T20:54:31.975Z,95967.41
2022-12-28T21:04:31.380Z,95954.31
2022-12-28T21:14:29.352Z,95971.47
2022-12-28T21:24:28.749Z,95957.44
2022-12-28T21:34:28.008Z,95937.50
2022-12-28T21:44:27.452Z,95935.41
2022-12-28T21:54:25.352Z,95928.69
